Time;durP1;ratioP1;P1;durP2;ratioP2;P2;SDS_P1;SDS_P2;PMS_P1;PMS_P2;Temp;Humidity;BMP_temperature;BMP_pressure;BME280_temperature;BME280_humidity;BME280_pressure;Samples;Min_cycle;Max_cycle;Signal;HPM_P1;HPM_P2
2022/04/05 00:01:19;;;;;;;9.80;9.50;;;5.00;99.90;;;;;;5002074;28;20233;-84
2022/04/05 00:03:52;;;;;;;9.90;9.60;;;5.00;99.90;;;;;;5003039;28;20264;-84
2022/04/05 00:06:20;;;;;;;9.90;9.60;;;5.00;99.90;;;;;;5003376;28;20243;-83
2022/04/05 00:08:48;;;;;;;9.90;9.60;;;5.00;99.90;;;;;;5003370;28;20240;-84
2022/04/05 00:11:18;;;;;;;9.80;9.50;;;5.00;99.90;;;;;;5002535;28;20714;-83
2022/04/05 00:13:47;;;;;;;9.80;9.50;;;5.00;99.90;;;;;;5002020;28;20229;-83
2022/04/05 00:16:15;;;;;;;9.83;9.53;;;5.00;99.90;;;;;;5002219;28;20237;-83
2022/04/05 00:18:47;;;;;;;10.00;9.70;;;5.00;99.90;;;;;;5002987;28;20256;-83
2022/04/05 00:21:18;;;;;;;10.20;9.90;;;5.00;99.90;;;;;;5002060;28;20251;-83
2022/04/05 00:23:46;;;;;;;10.20;9.90;;;5.00;99.90;;;;;;5002344;28;20236;-83
2022/04/05 00:26:14;;;;;;;9.80;9.50;;;5.00;99.90;;;;;;5001936;28;20253;-83
2022/04/05 00:28:43;;;;;;;9.40;9.10;;;5.00;99.90;;;;;;5001913;28;20229;-83
2022/04/05 00:31:12;;;;;;;9.90;9.60;;;5.00;99.90;;;;;;5001624;28;20237;-84
2022/04/05 00:33:41;;;;;;;9.40;9.10;;;5.10;99.90;;;;;;5001578;28;20287;-84
2022/04/05 00:36:10;;;;;;;9.97;9.67;;;5.00;99.90;;;;;;5012379;28;20213;-82
2022/04/05 00:38:41;;;;;;;9.90;9.60;;;5.10;99.90;;;;;;5005898;28;20229;-82
2022/04/05 00:41:09;;;;;;;9.80;9.50;;;5.10;99.90;;;;;;5007725;28;20229;-82
2022/04/05 00:43:41;;;;;;;9.80;9.50;;;5.10;99.90;;;;;;5005638;28;20232;-83
2022/04/05 00:46:09;;;;;;;9.70;9.40;;;5.10;99.90;;;;;;5003467;28;20208;-81
2022/04/05 00:48:49;;;;;;;9.47;9.17;;;5.10;99.90;;;;;;5003346;28;20239;-82
2022/04/05 00:51:17;;;;;;;9.60;9.30;;;5.20;99.90;;;;;;5003202;28;20235;-82
2022/04/05 00:53:52;;;;;;;9.57;9.27;;;5.20;99.90;;;;;;5002897;28;20241;-82
2022/04/05 00:56:24;;;;;;;9.80;9.50;;;5.20;99.90;;;;;;5002348;28;20232;-82
2022/04/05 00:58:54;;;;;;;9.60;9.30;;;5.20;99.90;;;;;;5002590;28;20253;-82
2022/04/05 01:01:24;;;;;;;9.80;9.50;;;5.20;99.90;;;;;;5002363;28;20268;-82
2022/04/05 01:03:53;;;;;;;9.13;8.83;;;5.20;99.90;;;;;;5001690;28;20328;-82
2022/04/05 01:06:25;;;;;;;9.53;9.23;;;5.20;99.90;;;;;;5001877;28;20252;-82
2022/04/05 01:09:01;;;;;;;9.53;9.23;;;5.20;99.90;;;;;;5001983;28;20253;-82
2022/04/05 01:11:30;;;;;;;9.37;9.07;;;5.20;99.90;;;;;;5001927;28;20330;-82
2022/04/05 01:13:59;;;;;;;9.20;8.90;;;5.20;99.90;;;;;;5000782;28;20240;-82
2022/04/05 01:16:27;;;;;;;9.50;9.20;;;5.30;99.90;;;;;;5001414;28;20237;-82
2022/04/05 01:19:00;;;;;;;9.47;9.17;;;5.30;99.90;;;;;;5002053;28;20284;-84
2022/04/05 01:21:30;;;;;;;8.90;8.70;;;5.30;99.90;;;;;;5001691;28;20303;-84
2022/04/05 01:24:10;;;;;;;9.53;9.23;;;5.30;99.90;;;;;;5038629;22;20243;-84
2022/04/05 01:26:44;;;;;;;9.30;9.00;;;5.30;99.90;;;;;;5022025;28;20231;-84
2022/04/05 01:29:16;;;;;;;9.60;9.30;;;5.30;99.90;;;;;;5022172;28;20227;-85
2022/04/05 01:31:46;;;;;;;8.93;8.73;;;5.30;99.90;;;;;;5019722;28;20274;-84
2022/04/05 01:34:16;;;;;;;9.53;9.23;;;5.40;99.90;;;;;;5010903;28;20299;-86
2022/04/05 01:36:44;;;;;;;9.07;8.87;;;5.40;99.90;;;;;;4997460;28;20237;-86
2022/04/05 01:39:16;;;;;;;9.37;9.07;;;5.40;99.90;;;;;;4997427;28;20292;-87
2022/04/05 01:41:45;;;;;;;9.00;8.80;;;5.40;99.90;;;;;;4997629;28;20291;-85
2022/04/05 01:44:15;;;;;;;9.03;8.83;;;5.40;99.90;;;;;;4997431;28;20240;-85
2022/04/05 01:46:42;;;;;;;8.87;8.67;;;5.40;99.90;;;;;;4997826;28;20287;-85
2022/04/05 01:49:13;;;;;;;9.50;9.20;;;5.40;99.90;;;;;;4998197;28;20241;-86
2022/04/05 01:51:42;;;;;;;9.03;8.80;;;5.40;99.90;;;;;;4998067;28;20309;-85
2022/04/05 01:54:19;;;;;;;9.30;9.00;;;5.40;99.90;;;;;;4997343;28;20232;-85
2022/04/05 01:56:50;;;;;;;9.30;9.00;;;5.40;99.90;;;;;;4997745;28;20239;-86
2022/04/05 01:59:20;;;;;;;9.53;9.23;;;5.40;99.90;;;;;;5002805;28;20229;-86
2022/04/05 02:01:48;;;;;;;9.20;8.90;;;5.40;99.90;;;;;;5018907;28;20248;-84
2022/04/05 02:04:17;;;;;;;9.37;9.07;;;5.40;99.90;;;;;;5018944;28;20229;-85
2022/04/05 02:06:46;;;;;;;9.03;8.83;;;5.40;99.90;;;;;;5018965;28;20296;-85
2022/04/05 02:09:27;;;;;;;9.50;9.20;;;5.30;99.90;;;;;;5018731;28;20221;-84
2022/04/05 02:11:54;;;;;;;9.80;9.50;;;5.20;99.90;;;;;;5018135;28;20221;-84
2022/04/05 02:14:24;;;;;;;10.00;9.70;;;5.20;99.90;;;;;;5008624;28;20225;-87
2022/04/05 02:16:53;;;;;;;9.50;9.20;;;5.20;99.90;;;;;;4998666;28;20276;-85
2022/04/05 02:19:22;;;;;;;9.53;9.23;;;5.20;99.90;;;;;;4997191;28;20228;-84
2022/04/05 02:21:51;;;;;;;9.90;9.60;;;5.20;99.90;;;;;;4996346;28;20272;-84
2022/04/05 02:24:31;;;;;;;9.70;9.40;;;5.20;99.90;;;;;;4996057;28;20272;-85
2022/04/05 02:26:59;;;;;;;9.90;9.60;;;5.10;99.90;;;;;;5001192;28;20229;-84
2022/04/05 02:29:28;;;;;;;9.90;9.60;;;5.10;99.90;;;;;;5001521;28;20264;-84
2022/04/05 02:31:58;;;;;;;9.57;9.27;;;5.10;99.90;;;;;;5001014;28;20228;-85
2022/04/05 02:34:27;;;;;;;9.77;9.47;;;5.10;99.90;;;;;;5000965;28;20245;-83
2022/04/05 02:36:57;;;;;;;9.47;9.17;;;5.00;99.90;;;;;;5001535;28;20233;-83
2022/04/05 02:39:36;;;;;;;9.23;8.93;;;5.00;99.90;;;;;;5000238;28;20237;-84
2022/04/05 02:42:05;;;;;;;9.23;8.93;;;5.00;99.90;;;;;;4999722;28;20244;-85
2022/04/05 02:44:35;;;;;;;9.33;9.03;;;5.00;99.90;;;;;;5000443;28;20243;-84
2022/04/05 02:47:04;;;;;;;9.57;9.27;;;5.00;99.90;;;;;;5000024;28;20340;-84
2022/04/05 02:49:34;;;;;;;9.63;9.33;;;5.00;99.90;;;;;;5000394;28;20240;-86
2022/04/05 02:52:02;;;;;;;9.53;9.23;;;5.00;99.90;;;;;;4999731;28;20239;-85
2022/04/05 02:54:42;;;;;;;9.50;9.20;;;5.00;99.90;;;;;;5000528;28;20283;-84
2022/04/05 02:57:10;;;;;;;9.60;9.30;;;4.90;99.90;;;;;;5000468;28;20308;-84
2022/04/05 02:59:41;;;;;;;9.40;9.10;;;4.90;99.90;;;;;;5001482;28;20236;-84
2022/04/05 03:02:09;;;;;;;9.60;9.30;;;4.90;99.90;;;;;;5000378;28;20233;-85
2022/04/05 03:04:38;;;;;;;9.70;9.40;;;4.90;99.90;;;;;;5000410;28;20233;-85
2022/04/05 03:07:08;;;;;;;9.93;9.63;;;4.90;99.90;;;;;;5000889;28;20217;-85
2022/04/05 03:09:48;;;;;;;10.20;9.90;;;4.80;99.90;;;;;;5000742;28;20233;-86
2022/04/05 03:12:15;;;;;;;10.07;9.77;;;4.80;99.90;;;;;;5000249;28;20303;-86
2022/04/05 03:14:45;;;;;;;10.07;9.77;;;4.80;99.90;;;;;;5000501;28;20315;-85
2022/04/05 03:17:15;;;;;;;10.40;10.10;;;4.80;99.90;;;;;;5000678;28;20219;-84
2022/04/05 03:19:45;;;;;;;10.00;9.70;;;4.70;99.90;;;;;;5003024;28;20232;-84
2022/04/05 03:22:16;;;;;;;10.60;10.30;;;4.70;99.90;;;;;;5001283;28;20264;-84
2022/04/05 03:24:46;;;;;;;10.10;9.80;;;4.60;99.90;;;;;;5001534;28;20258;-85
2022/04/05 03:27:13;;;;;;;9.77;9.47;;;4.70;99.90;;;;;;5005595;28;20225;-82
2022/04/05 03:29:44;;;;;;;10.07;9.77;;;4.60;99.90;;;;;;5020493;28;20233;-84
2022/04/05 03:32:13;;;;;;;10.07;9.77;;;4.60;99.90;;;;;;5019668;28;20233;-82
2022/04/05 03:34:41;;;;;;;10.33;10.03;;;4.60;99.90;;;;;;5019847;28;20221;-82
2022/04/05 03:37:12;;;;;;;9.60;9.30;;;4.60;99.90;;;;;;5018760;28;20229;-84
2022/04/05 03:39:42;;;;;;;9.80;9.50;;;4.50;99.90;;;;;;5007809;28;20229;-82
2022/04/05 03:42:13;;;;;;;10.17;9.87;;;4.50;99.90;;;;;;5007948;28;20240;-81
2022/04/05 03:44:41;;;;;;;9.67;9.37;;;4.50;99.90;;;;;;5007945;28;20229;-83
2022/04/05 03:47:10;;;;;;;9.80;9.50;;;4.50;99.90;;;;;;5003592;28;20229;-83
2022/04/05 03:49:39;;;;;;;10.00;9.70;;;4.50;99.90;;;;;;5004206;28;20315;-83
2022/04/05 03:52:08;;;;;;;9.80;9.50;;;4.50;99.90;;;;;;5001231;28;20232;-83
2022/04/05 03:54:37;;;;;;;9.43;9.13;;;4.50;99.90;;;;;;5001132;28;20233;-84
2022/04/05 03:57:07;;;;;;;9.80;9.50;;;4.50;99.90;;;;;;5003373;28;20233;-84
2022/04/05 03:59:46;;;;;;;9.77;9.47;;;4.50;99.90;;;;;;5012280;28;20248;-84
2022/04/05 04:02:15;;;;;;;10.20;9.90;;;4.50;99.90;;;;;;5003474;28;20291;-85
2022/04/05 04:04:44;;;;;;;10.30;10.00;;;4.50;99.90;;;;;;5002807;28;20280;-84
2022/04/05 04:07:17;;;;;;;9.93;9.63;;;4.50;99.90;;;;;;5001200;28;20232;-85
2022/04/05 04:09:45;;;;;;;10.13;9.83;;;4.50;99.90;;;;;;5000440;28;20366;-84
2022/04/05 04:12:13;;;;;;;10.10;9.80;;;4.50;99.90;;;;;;4999550;28;20320;-85
2022/04/05 04:14:51;;;;;;;10.20;9.90;;;4.40;99.90;;;;;;4999883;28;20232;-85
2022/04/05 04:17:20;;;;;;;10.13;9.83;;;4.40;99.90;;;;;;5000124;28;20224;-84
2022/04/05 04:19:49;;;;;;;11.20;10.90;;;4.40;99.90;;;;;;5000963;28;20241;-83
2022/04/05 04:22:20;;;;;;;10.00;9.70;;;4.40;99.90;;;;;;4999298;28;20283;-84
2022/04/05 04:24:49;;;;;;;10.30;10.00;;;4.40;99.90;;;;;;5000449;28;20324;-83
2022/04/05 04:27:19;;;;;;;9.60;9.30;;;4.40;99.90;;;;;;5000490;28;20236;-84
2022/04/05 04:29:50;;;;;;;10.03;9.73;;;4.30;99.90;;;;;;5001654;28;20271;-85
2022/04/05 04:32:18;;;;;;;9.90;9.60;;;4.30;99.90;;;;;;4999938;28;20232;-84
2022/04/05 04:34:47;;;;;;;9.80;9.50;;;4.40;99.90;;;;;;5000213;28;20236;-83
2022/04/05 04:37:16;;;;;;;9.90;9.60;;;4.30;99.90;;;;;;5000397;28;20248;-83
2022/04/05 04:39:45;;;;;;;9.67;9.37;;;4.30;99.90;;;;;;5000343;28;20233;-82
2022/04/05 04:42:15;;;;;;;9.60;9.30;;;4.30;99.90;;;;;;5000215;28;20291;-84
2022/04/05 04:44:44;;;;;;;10.00;9.70;;;4.30;99.90;;;;;;5001201;28;20244;-84
2022/04/05 04:47:23;;;;;;;9.97;9.67;;;4.30;99.90;;;;;;5000043;28;20225;-83
2022/04/05 04:49:53;;;;;;;10.40;10.10;;;4.30;99.90;;;;;;5000463;28;20295;-84
2022/04/05 04:52:22;;;;;;;10.27;9.97;;;4.30;99.90;;;;;;4999628;28;20241;-85
2022/04/05 04:54:51;;;;;;;10.30;10.00;;;4.30;99.90;;;;;;5000886;28;20236;-84
2022/04/05 04:57:22;;;;;;;10.40;10.10;;;4.30;99.90;;;;;;5000361;28;20224;-85
2022/04/05 04:59:52;;;;;;;10.40;10.10;;;4.30;99.90;;;;;;5001278;28;20221;-84
2022/04/05 05:02:28;;;;;;;10.50;10.20;;;4.30;99.90;;;;;;4999961;28;20224;-85
2022/04/05 05:04:58;;;;;;;10.60;10.30;;;4.30;99.90;;;;;;5000924;28;20240;-84
2022/04/05 05:07:29;;;;;;;10.20;9.90;;;4.30;99.90;;;;;;5007107;28;20217;-84
2022/04/05 05:09:56;;;;;;;10.10;9.80;;;4.30;99.90;;;;;;5005674;28;20243;-84
2022/04/05 05:12:25;;;;;;;10.50;10.20;;;4.30;99.90;;;;;;5004278;28;20289;-83
2022/04/05 05:14:56;;;;;;;10.80;10.50;;;4.30;99.90;;;;;;5004286;28;20229;-85
2022/04/05 05:17:38;;;;;;;10.30;10.00;;;4.30;99.90;;;;;;5001886;28;20267;-85
2022/04/05 05:20:13;;;;;;;10.20;9.90;;;4.30;99.90;;;;;;5001779;28;20300;-83
2022/04/05 05:22:41;;;;;;;10.27;9.97;;;4.30;99.90;;;;;;5000050;28;20291;-82
2022/04/05 05:25:13;;;;;;;10.57;10.27;;;4.40;99.90;;;;;;5002056;28;20225;-84
2022/04/05 05:27:41;;;;;;;10.73;10.43;;;4.30;99.90;;;;;;5000782;28;20225;-83
2022/04/05 05:30:11;;;;;;;10.40;10.10;;;4.40;99.90;;;;;;5001568;28;20229;-83
2022/04/05 05:32:52;;;;;;;10.73;10.43;;;4.40;99.90;;;;;;5012307;28;20237;-84
2022/04/05 05:38:05;;;;;;;10.33;10.03;;;4.40;99.90;;;;;;5018264;28;20248;-83
2022/04/05 05:40:35;;;;;;;10.50;10.20;;;4.50;99.90;;;;;;5014371;28;20224;-83
2022/04/05 05:43:05;;;;;;;10.30;10.00;;;4.50;99.90;;;;;;5009467;28;20295;-84
2022/04/05 05:45:35;;;;;;;10.40;10.10;;;4.50;99.90;;;;;;5007498;28;20235;-84
2022/04/05 05:48:13;;;;;;;10.07;9.77;;;4.50;99.90;;;;;;5009930;28;20284;-84
2022/04/05 05:50:42;;;;;;;10.03;9.73;;;4.50;99.90;;;;;;5018779;28;20259;-83
2022/04/05 05:53:11;;;;;;;10.40;10.10;;;4.60;99.90;;;;;;5018984;28;20224;-82
2022/04/05 05:55:41;;;;;;;10.20;9.90;;;4.60;99.90;;;;;;5019988;28;20271;-81
2022/04/05 05:58:10;;;;;;;9.60;9.30;;;4.60;99.90;;;;;;5019566;28;20201;-83
2022/04/05 06:00:39;;;;;;;10.07;9.77;;;4.70;99.90;;;;;;5020559;28;20268;-82
2022/04/05 06:03:12;;;;;;;9.97;9.67;;;4.60;99.90;;;;;;5021340;28;20288;-82
2022/04/05 06:05:40;;;;;;;10.20;9.90;;;4.70;99.90;;;;;;5020977;28;20384;-83
2022/04/05 06:08:19;;;;;;;10.38;10.07;;;4.70;99.90;;;;;;5018068;28;20388;-85
2022/04/05 06:10:47;;;;;;;10.03;9.73;;;4.80;99.90;;;;;;5007976;28;20243;-86
2022/04/05 06:13:18;;;;;;;10.53;10.23;;;4.90;99.90;;;;;;5005122;28;20241;-87
2022/04/05 06:15:45;;;;;;;10.40;10.10;;;4.90;99.90;;;;;;5004953;28;20275;-86
2022/04/05 06:18:24;;;;;;;10.20;9.90;;;4.90;99.90;;;;;;5004107;28;20225;-86
2022/04/05 06:20:55;;;;;;;10.10;9.80;;;4.90;99.90;;;;;;5004313;28;20237;-86
2022/04/05 06:23:24;;;;;;;10.10;9.80;;;4.90;99.90;;;;;;5011349;28;20244;-84
2022/04/05 06:25:53;;;;;;;10.27;9.97;;;4.90;99.90;;;;;;5012945;28;20231;-87
2022/04/05 06:28:21;;;;;;;10.07;9.77;;;4.90;99.90;;;;;;5006864;28;20233;-87
2022/04/05 06:30:52;;;;;;;9.60;9.30;;;4.90;99.90;;;;;;5008661;28;20232;-87
2022/04/05 06:33:28;;;;;;;9.80;9.50;;;4.90;99.90;;;;;;5016862;28;20232;-85
2022/04/05 06:35:59;;;;;;;9.90;9.60;;;4.90;99.90;;;;;;5020585;28;20213;-85
2022/04/05 06:38:28;;;;;;;10.20;9.90;;;5.00;99.90;;;;;;5017306;28;20248;-87
2022/04/05 06:40:59;;;;;;;9.87;9.57;;;5.00;99.90;;;;;;5010082;28;20236;-87
2022/04/05 06:43:26;;;;;;;9.80;9.50;;;4.90;99.90;;;;;;5002473;28;20255;-84
2022/04/05 06:45:56;;;;;;;10.00;9.70;;;5.00;99.90;;;;;;5001853;28;20233;-85
2022/04/05 06:48:35;;;;;;;10.17;9.87;;;5.00;99.90;;;;;;5000909;28;20307;-86
2022/04/05 06:51:24;;;;;;;9.90;9.60;;;5.00;99.90;;;;;;5000319;28;20284;-86
2022/04/05 06:53:52;;;;;;;10.03;9.73;;;5.00;99.90;;;;;;4999221;28;20236;-85
2022/04/05 06:56:21;;;;;;;10.00;9.70;;;5.00;99.90;;;;;;4999985;28;20272;-85
2022/04/05 06:58:49;;;;;;;10.40;10.10;;;5.00;99.90;;;;;;4998530;28;20264;-85
2022/04/05 07:01:19;;;;;;;9.83;9.53;;;5.00;99.90;;;;;;4998973;28;20252;-84
2022/04/05 07:03:58;;;;;;;10.00;9.70;;;5.00;99.90;;;;;;4997843;28;20245;-84
2022/04/05 07:06:27;;;;;;;9.90;9.60;;;5.00;99.90;;;;;;4999307;28;20252;-89
2022/04/05 07:08:56;;;;;;;10.20;9.90;;;5.00;99.90;;;;;;4998793;28;20229;-86
2022/04/05 07:11:25;;;;;;;10.20;9.90;;;4.90;99.90;;;;;;4997438;28;20229;-85
2022/04/05 07:13:55;;;;;;;10.13;9.83;;;4.90;99.90;;;;;;4998680;28;20240;-85
2022/04/05 07:16:24;;;;;;;10.50;10.20;;;4.90;99.90;;;;;;4998955;28;20233;-84
2022/04/05 07:21:41;;;;;;;10.70;10.40;;;4.90;99.90;;;;;;4999341;28;20268;-87
2022/04/05 07:24:10;;;;;;;10.40;10.10;;;4.80;99.90;;;;;;4998688;28;20240;-87
2022/04/05 07:26:39;;;;;;;10.60;10.30;;;4.80;99.90;;;;;;5001437;28;20236;-86
2022/04/05 07:29:12;;;;;;;10.53;10.23;;;4.90;99.90;;;;;;5004190;28;20284;-87
2022/04/05 07:31:40;;;;;;;10.50;10.20;;;4.90;99.90;;;;;;5039299;22;20282;-86
2022/04/05 07:34:18;;;;;;;10.50;10.20;;;4.90;99.90;;;;;;5009829;28;20233;-84
2022/04/05 07:36:48;;;;;;;10.23;9.93;;;4.90;99.90;;;;;;5005064;28;21116;-84
2022/04/05 07:39:19;;;;;;;10.37;10.07;;;4.90;99.90;;;;;;5003526;28;20225;-84
2022/04/05 07:41:46;;;;;;;10.17;9.87;;;4.90;99.90;;;;;;5003166;28;20246;-85
2022/04/05 07:44:16;;;;;;;10.27;9.97;;;4.90;99.90;;;;;;5003889;28;20229;-86
2022/04/05 07:46:45;;;;;;;10.10;9.80;;;5.00;99.90;;;;;;5003987;28;20234;-85
2022/04/05 07:49:24;;;;;;;10.10;9.80;;;4.90;99.90;;;;;;5004222;28;20221;-85
2022/04/05 07:51:53;;;;;;;10.20;9.90;;;4.90;99.90;;;;;;5001866;28;20237;-85
2022/04/05 07:54:23;;;;;;;10.13;9.83;;;4.90;99.90;;;;;;5003664;28;20256;-85
2022/04/05 07:56:52;;;;;;;10.00;9.70;;;4.90;99.90;;;;;;5002488;28;20287;-86
2022/04/05 07:59:21;;;;;;;10.17;9.87;;;4.90;99.90;;;;;;5003583;28;20233;-86
2022/04/05 08:01:50;;;;;;;10.43;10.13;;;5.00;99.90;;;;;;5011798;28;20322;-86
2022/04/05 08:04:30;;;;;;;10.57;10.27;;;5.00;99.90;;;;;;5001764;28;20231;-86
2022/04/05 08:07:01;;;;;;;10.50;10.20;;;5.00;99.90;;;;;;5002115;28;20244;-88
2022/04/05 08:09:37;;;;;;;10.50;10.20;;;5.10;99.90;;;;;;5002061;28;20232;-86
2022/04/05 08:12:10;;;;;;;10.30;10.00;;;5.10;99.90;;;;;;5008138;28;20254;-85
2022/04/05 08:14:38;;;;;;;10.33;10.03;;;5.20;99.90;;;;;;5002444;28;20291;-83
2022/04/05 08:17:06;;;;;;;10.67;10.37;;;5.20;99.90;;;;;;5005169;28;21093;-84
2022/04/05 08:19:42;;;;;;;10.63;10.33;;;5.30;99.90;;;;;;5013696;28;20256;-83
2022/04/05 08:22:13;;;;;;;10.40;10.10;;;5.40;99.90;;;;;;5016197;28;20272;-84
2022/04/05 08:24:44;;;;;;;10.40;10.10;;;5.40;99.90;;;;;;5017228;28;20212;-86
2022/04/05 08:27:14;;;;;;;10.30;10.00;;;5.50;99.90;;;;;;5015303;28;20229;-83
2022/04/05 08:29:42;;;;;;;10.60;10.30;;;5.50;99.90;;;;;;5002617;28;20229;-84
2022/04/05 08:32:10;;;;;;;10.53;10.23;;;5.50;99.90;;;;;;5002595;28;20232;-84
2022/04/05 08:34:42;;;;;;;10.60;10.30;;;5.50;99.90;;;;;;5003366;28;20236;-83
2022/04/05 08:37:10;;;;;;;10.50;10.20;;;5.50;99.90;;;;;;5002372;28;20225;-84
2022/04/05 08:39:39;;;;;;;10.90;10.60;;;5.60;99.90;;;;;;5000897;28;20239;-86
2022/04/05 08:42:09;;;;;;;10.47;10.17;;;5.60;99.90;;;;;;5002129;28;20244;-84
2022/04/05 08:44:39;;;;;;;10.10;9.80;;;5.60;99.90;;;;;;5001857;28;20336;-84
2022/04/05 08:47:09;;;;;;;10.47;10.17;;;5.60;99.90;;;;;;4999905;28;20242;-83
2022/04/05 08:49:40;;;;;;;10.50;10.20;;;5.60;99.90;;;;;;5000823;28;20235;-83
2022/04/05 08:52:09;;;;;;;10.60;10.30;;;5.60;99.90;;;;;;4999752;28;20260;-84
2022/04/05 08:54:37;;;;;;;10.50;10.20;;;5.70;99.90;;;;;;5000558;28;20224;-84
2022/04/05 08:57:05;;;;;;;10.60;10.30;;;5.70;99.90;;;;;;5000431;28;20244;-84
2022/04/05 08:59:35;;;;;;;10.63;10.33;;;5.80;99.90;;;;;;5001904;28;20236;-85
2022/04/05 09:02:04;;;;;;;10.63;10.33;;;5.80;99.90;;;;;;5001578;28;20249;-85
2022/04/05 09:04:34;;;;;;;10.37;10.07;;;5.90;99.90;;;;;;5002564;28;20233;-84
2022/04/05 09:07:27;;;;;;;10.17;9.87;;;5.90;99.90;;;;;;5001974;28;20228;-84
2022/04/05 09:10:17;;;;;;;10.40;10.10;;;5.90;99.90;;;;;;5003102;28;20309;-83
2022/04/05 09:12:48;;;;;;;10.20;9.90;;;5.90;99.90;;;;;;5002705;28;20284;-85
2022/04/05 09:26:26;;;;;;;10.40;10.10;;;6.00;99.90;;;;;;4981913;28;20257;-84
2022/04/05 09:28:54;;;;;;;10.30;10.00;;;6.00;99.90;;;;;;4982575;28;20237;-84
2022/04/05 09:31:24;;;;;;;10.20;9.90;;;6.00;99.90;;;;;;4981222;28;20249;-84
2022/04/05 09:34:12;;;;;;;10.30;10.00;;;6.00;99.90;;;;;;4996056;28;20212;-84
2022/04/05 09:36:42;;;;;;;10.27;9.97;;;6.10;99.90;;;;;;5005332;28;20282;-84
2022/04/05 09:39:18;;;;;;;10.17;9.87;;;6.10;99.90;;;;;;5004437;28;20236;-83
2022/04/05 09:41:52;;;;;;;10.10;9.80;;;6.20;99.90;;;;;;5004156;28;20310;-83
2022/04/05 09:44:28;;;;;;;10.00;9.70;;;6.20;99.90;;;;;;5004773;28;20284;-83
2022/04/05 09:47:07;;;;;;;10.07;9.77;;;6.30;99.90;;;;;;5004444;28;20272;-83
2022/04/05 09:49:39;;;;;;;10.10;9.80;;;6.30;99.90;;;;;;5004185;28;20233;-83
2022/04/05 09:52:26;;;;;;;10.03;9.73;;;6.40;99.90;;;;;;5003878;28;20237;-84
2022/04/05 09:54:59;;;;;;;9.63;9.33;;;6.40;99.90;;;;;;5004367;28;20224;-84
2022/04/05 09:57:34;;;;;;;10.00;9.70;;;6.40;99.90;;;;;;5005089;28;20276;-85
2022/04/05 10:00:15;;;;;;;9.77;9.47;;;6.40;99.90;;;;;;5004316;28;20272;-86
2022/04/05 10:03:01;;;;;;;9.70;9.40;;;6.40;99.90;;;;;;5003060;28;20556;-82
2022/04/05 10:05:31;;;;;;;9.73;9.43;;;6.50;99.90;;;;;;5005604;28;20272;-85
2022/04/05 10:08:02;;;;;;;10.07;9.77;;;6.50;99.90;;;;;;5004294;28;20233;-84
2022/04/05 10:10:30;;;;;;;9.97;9.67;;;6.60;99.90;;;;;;5004363;28;20240;-84
2022/04/05 10:13:01;;;;;;;9.90;9.60;;;6.60;99.90;;;;;;5003120;28;20233;-83
2022/04/05 10:15:30;;;;;;;10.00;9.70;;;6.60;99.90;;;;;;5004016;28;20220;-84
2022/04/05 10:17:59;;;;;;;9.77;9.47;;;6.60;99.90;;;;;;5005310;28;20232;-84
2022/04/05 10:20:29;;;;;;;9.97;9.67;;;6.60;99.90;;;;;;5007105;28;20264;-84
2022/04/05 10:23:01;;;;;;;9.77;9.47;;;6.70;99.90;;;;;;5005412;28;20256;-84
2022/04/05 10:25:30;;;;;;;9.90;9.60;;;6.70;99.90;;;;;;5008257;28;20260;-84
2022/04/05 10:27:59;;;;;;;10.10;9.80;;;6.80;99.90;;;;;;5005573;28;20236;-84
2022/04/05 10:30:34;;;;;;;9.90;9.60;;;6.80;99.90;;;;;;5003882;28;20245;-83
2022/04/05 10:33:15;;;;;;;9.90;9.60;;;6.90;99.90;;;;;;5003852;28;20220;-84
2022/04/05 10:35:52;;;;;;;9.80;9.50;;;6.90;99.90;;;;;;5003664;28;20880;-84
2022/04/05 10:38:20;;;;;;;9.70;9.40;;;6.90;99.90;;;;;;5003380;28;20233;-82
2022/04/05 10:41:20;;;;;;;9.60;9.30;;;6.90;99.90;;;;;;5002841;28;20351;-84
2022/04/05 10:44:23;;;;;;;9.90;9.60;;;6.90;99.90;;;;;;5001965;28;20244;-83
2022/04/05 10:46:57;;;;;;;9.80;9.50;;;7.00;99.90;;;;;;5000804;28;20228;-82
2022/04/05 10:49:41;;;;;;;10.00;9.70;;;7.00;99.90;;;;;;5001552;28;20243;-83
2022/04/05 10:52:17;;;;;;;9.60;9.30;;;7.00;99.90;;;;;;5001375;28;20230;-83
2022/04/05 10:54:49;;;;;;;9.63;9.33;;;7.00;99.90;;;;;;5001251;28;20233;-83
2022/04/05 10:57:26;;;;;;;9.43;9.13;;;7.10;99.90;;;;;;5001446;28;20229;-83
2022/04/05 11:00:04;;;;;;;9.43;9.13;;;7.10;99.90;;;;;;5001659;28;20292;-84
2022/04/05 11:02:43;;;;;;;9.53;9.23;;;7.10;99.90;;;;;;5002517;28;20236;-84
2022/04/05 11:05:38;;;;;;;9.70;9.40;;;7.10;99.90;;;;;;5002370;28;20292;-83
2022/04/05 11:08:17;;;;;;;9.47;9.17;;;7.10;99.90;;;;;;5002458;28;20330;-83
2022/04/05 11:11:08;;;;;;;9.30;9.00;;;7.10;99.90;;;;;;5004062;28;20236;-84
2022/04/05 11:13:42;;;;;;;9.43;9.13;;;7.10;99.90;;;;;;5003724;28;20237;-84
2022/04/05 11:16:19;;;;;;;9.60;9.30;;;7.10;99.90;;;;;;5012104;28;20213;-85
2022/04/05 11:18:47;;;;;;;10.10;9.80;;;7.10;99.90;;;;;;5020976;28;20196;-84
2022/04/05 11:21:17;;;;;;;9.80;9.50;;;7.10;99.90;;;;;;5020373;28;20300;-84
2022/04/05 11:23:49;;;;;;;9.90;9.60;;;7.10;99.90;;;;;;5003589;28;20236;-83
2022/04/05 11:26:35;;;;;;;9.90;9.60;;;7.10;99.90;;;;;;5003887;28;20209;-84
2022/04/05 11:29:22;;;;;;;10.30;10.00;;;7.10;99.90;;;;;;5004085;28;20224;-84
2022/04/05 11:32:18;;;;;;;10.10;9.80;;;7.00;99.90;;;;;;5002585;28;20236;-84
2022/04/05 11:34:48;;;;;;;10.27;9.97;;;7.00;99.90;;;;;;5003235;28;20225;-84
2022/04/05 11:37:17;;;;;;;9.83;9.53;;;6.90;99.90;;;;;;5003345;28;20264;-84
2022/04/05 11:39:47;;;;;;;10.00;9.70;;;6.90;99.90;;;;;;5001622;28;20257;-83
2022/04/05 11:42:16;;;;;;;10.10;9.80;;;6.80;99.90;;;;;;5000242;28;20243;-83
2022/04/05 11:44:54;;;;;;;10.00;9.70;;;6.80;99.90;;;;;;5003477;28;20237;-83
2022/04/05 11:47:32;;;;;;;10.30;10.00;;;6.90;99.90;;;;;;5009353;28;20200;-86
2022/04/05 11:50:01;;;;;;;9.87;9.57;;;7.10;99.90;;;;;;5006768;28;20287;-84
2022/04/05 11:52:31;;;;;;;9.70;9.40;;;7.10;99.90;;;;;;5005449;28;20241;-82
2022/04/05 11:57:47;;;;;;;10.00;9.70;;;7.20;99.90;;;;;;5003225;28;20217;-85
2022/04/05 12:00:17;;;;;;;10.27;9.97;;;7.20;99.90;;;;;;5006690;28;20225;-83
2022/04/05 12:03:05;;;;;;;9.73;9.43;;;7.20;99.90;;;;;;5003401;28;20240;-84
2022/04/05 12:05:43;;;;;;;10.10;9.80;;;7.20;99.90;;;;;;5003062;28;20229;-84
2022/04/05 12:08:12;;;;;;;9.87;9.57;;;7.20;99.90;;;;;;5001485;28;20292;-82
2022/04/05 12:10:42;;;;;;;9.40;9.10;;;7.20;99.90;;;;;;5001670;28;20303;-82
2022/04/05 12:13:11;;;;;;;9.50;9.20;;;7.30;99.90;;;;;;5003110;28;20225;-86
2022/04/05 12:15:42;;;;;;;9.40;9.10;;;7.30;99.90;;;;;;5001656;28;20299;-86
2022/04/05 12:18:27;;;;;;;9.37;9.07;;;7.40;99.90;;;;;;5002751;28;20216;-85
2022/04/05 12:21:08;;;;;;;9.50;9.20;;;7.40;99.90;;;;;;5003809;28;20237;-85
2022/04/05 12:23:39;;;;;;;9.43;9.13;;;7.50;99.90;;;;;;5003472;28;20275;-84
2022/04/05 12:26:14;;;;;;;9.83;9.53;;;7.50;99.90;;;;;;5004469;28;20237;-84
2022/04/05 12:28:45;;;;;;;9.50;9.20;;;7.50;99.90;;;;;;5000015;28;20287;-85
2022/04/05 12:31:22;;;;;;;9.80;9.50;;;7.50;99.90;;;;;;5004478;28;20251;-85
2022/04/05 12:33:59;;;;;;;9.80;9.50;;;7.40;99.90;;;;;;5003231;28;20256;-85
2022/04/05 12:36:35;;;;;;;10.10;9.80;;;7.40;99.90;;;;;;5004283;28;20229;-84
2022/04/05 12:39:08;;;;;;;9.80;9.50;;;7.50;99.90;;;;;;5004235;28;20231;-85
2022/04/05 12:41:45;;;;;;;9.80;9.50;;;7.50;99.90;;;;;;5002735;28;20325;-85
2022/04/05 12:44:16;;;;;;;10.13;9.83;;;7.50;99.90;;;;;;5002255;28;20290;-85
2022/04/05 12:46:54;;;;;;;10.03;9.73;;;7.60;99.90;;;;;;5003660;28;20238;-85
2022/04/05 12:49:31;;;;;;;9.77;9.47;;;7.70;99.90;;;;;;5003610;28;20234;-86
2022/04/05 12:52:18;;;;;;;10.00;9.70;;;7.80;99.90;;;;;;5006146;28;20237;-86
2022/04/05 12:54:58;;;;;;;9.97;9.67;;;7.80;99.90;;;;;;5003124;28;20236;-85
2022/04/05 12:57:34;;;;;;;9.90;9.60;;;7.90;99.90;;;;;;5002162;28;20332;-84
2022/04/05 13:00:15;;;;;;;10.27;9.97;;;7.90;99.90;;;;;;5001738;28;20232;-86
2022/04/05 13:02:51;;;;;;;10.60;10.30;;;7.90;99.90;;;;;;5000788;28;20221;-87
2022/04/05 13:08:17;;;;;;;10.10;9.80;;;8.20;99.90;;;;;;5003357;28;20221;-85
2022/04/05 13:10:47;;;;;;;10.50;10.20;;;8.40;99.90;;;;;;5002732;28;20339;-84
2022/04/05 13:13:23;;;;;;;10.30;10.00;;;8.60;99.90;;;;;;5001863;28;20236;-85
2022/04/05 13:16:11;;;;;;;10.40;10.10;;;8.60;99.90;;;;;;5002738;28;20323;-84
2022/04/05 13:18:41;;;;;;;10.10;9.80;;;8.60;99.90;;;;;;5002455;28;20229;-84
2022/04/05 13:21:17;;;;;;;10.23;9.93;;;8.60;99.90;;;;;;5002718;28;20229;-84
2022/04/05 13:24:01;;;;;;;10.00;9.70;;;8.60;99.90;;;;;;5001762;28;20244;-85
2022/04/05 13:26:33;;;;;;;10.10;9.80;;;8.50;99.90;;;;;;5006267;28;20271;-84
2022/04/05 13:29:08;;;;;;;9.77;9.47;;;8.50;99.90;;;;;;5002906;28;20260;-83
2022/04/05 13:31:46;;;;;;;10.10;9.80;;;8.60;99.90;;;;;;5002922;28;20244;-83
2022/04/05 13:34:16;;;;;;;9.60;9.30;;;8.70;99.90;;;;;;5001516;28;20257;-84
2022/04/05 13:36:48;;;;;;;9.53;9.23;;;8.70;99.90;;;;;;5002845;28;20296;-83
2022/04/05 13:39:21;;;;;;;9.43;9.13;;;8.70;99.90;;;;;;5003276;28;20225;-84